createdAt,value
2023-02-03T00:07:47.526Z,101391.09
2023-02-03T00:17:52.492Z,101363.31
2023-02-03T00:27:56.259Z,101378.81
2023-02-03T00:38:01.300Z,101404.09
2023-02-03T00:48:06.333Z,101384.25
2023-02-03T00:58:11.296Z,101377.16
2023-02-03T01:08:15.029Z,101300.78
2023-02-03T01:18:21.104Z,101348.91
2023-02-03T01:28:24.827Z,101351.69
2023-02-03T01:38:30.052Z,101336.50
2023-02-03T01:48:35.763Z,101336.09
2023-02-03T01:58:43.336Z,101327.06
2023-02-03T02:08:51.447Z,101306.66
2023-02-03T02:19:16.830Z,101313.81
2023-02-03T02:29:38.728Z,101335.72
2023-02-03T02:39:54.744Z,101334.19
2023-02-03T02:50:04.751Z,101340.69
2023-02-03T03:00:12.305Z,101357.53
2023-02-03T03:10:21.923Z,101338.41
2023-02-03T03:20:28.979Z,101341.47
2023-02-03T03:30:37.627Z,101334.78
2023-02-03T03:40:49.863Z,101293.09
2023-02-03T03:50:59.474Z,101298.13
2023-02-03T04:01:07.554Z,101278.16
2023-02-03T04:11:32.009Z,101273.41
2023-02-03T04:21:36.939Z,101308.72
2023-02-03T04:31:40.619Z,101290.66
2023-02-03T04:41:45.672Z,101337.06
2023-02-03T04:51:50.307Z,101340.81
2023-02-03T05:01:55.387Z,101318.84
2023-02-03T05:11:59.066Z,101332.03
2023-02-03T05:22:03.989Z,101285.53
2023-02-03T05:32:07.753Z,101275.22
2023-02-03T05:42:12.781Z,101273.38
2023-02-03T05:52:16.766Z,101284.19
2023-02-03T06:02:21.764Z,101289.78
2023-02-03T06:12:27.527Z,101291.38
2023-02-03T06:22:33.739Z,101277.16
2023-02-03T06:32:37.391Z,101246.44
2023-02-03T06:42:46.247Z,101270.97
2023-02-03T06:52:51.295Z,101285.22
2023-02-03T07:02:57.823Z,101262.22
2023-02-03T07:13:05.772Z,101269.22
2023-02-03T07:23:10.843Z,101271.19
2023-02-03T07:33:14.719Z,101264.78
2023-02-03T07:43:20.292Z,101283.97
2023-02-03T07:53:24.185Z,101279.81
2023-02-03T08:03:29.225Z,101278.84
2023-02-03T08:13:32.879Z,101266.38
2023-02-03T08:23:37.899Z,101274.72
2023-02-03T08:33:41.734Z,101259.44
2023-02-03T08:43:47.008Z,101250.53
2023-02-03T08:53:50.591Z,101240.13
2023-02-03T09:03:55.697Z,101219.88
2023-02-03T09:13:59.689Z,101237.50
2023-02-03T09:24:05.647Z,101272.75
2023-02-03T09:34:09.463Z,101247.63
2023-02-03T09:44:22.084Z,101219.56
2023-02-03T09:54:38.677Z,101209.81
2023-02-03T10:04:56.743Z,101206.75
2023-02-03T10:15:22.028Z,101194.66
2023-02-03T10:25:35.160Z,101193.59
2023-02-03T10:35:47.933Z,101207.81
2023-02-03T10:45:53.100Z,101197.00
2023-02-03T10:56:06.772Z,101208.56
2023-02-03T11:06:14.382Z,101169.66
2023-02-03T11:16:21.168Z,101146.63
2023-02-03T11:26:30.540Z,101148.03
2023-02-03T11:36:36.520Z,101190.84
2023-02-03T11:46:42.352Z,101198.59
2023-02-03T11:57:22.716Z,101157.19
2023-02-03T12:07:41.434Z,101141.22
2023-02-03T12:18:06.537Z,101106.03
2023-02-03T12:28:33.446Z,101096.53
2023-02-03T12:38:45.275Z,101138.63
2023-02-03T12:48:57.732Z,101176.94
2023-02-03T12:59:06.979Z,101165.78
2023-02-03T13:09:28.970Z,101131.91
2023-02-03T13:19:43.948Z,101129.25
2023-02-03T13:30:09.228Z,101163.22
2023-02-03T13:40:35.612Z,101154.38
2023-02-03T13:50:41.414Z,101149.94
2023-02-03T14:01:07.502Z,101137.31
2023-02-03T14:11:45.330Z,101162.09
2023-02-03T14:21:54.171Z,101179.41
2023-02-03T14:32:05.197Z,101180.69
2023-02-03T14:42:21.227Z,101173.34
2023-02-03T14:52:46.250Z,101176.88
2023-02-03T15:03:25.499Z,101196.56
2023-02-03T15:13:32.515Z,101211.06
2023-02-03T15:23:43.177Z,101209.25
2023-02-03T15:33:50.105Z,101224.28
2023-02-03T15:43:57.682Z,101221.34
2023-02-03T15:54:10.173Z,101213.94
2023-02-03T16:04:14.490Z,101233.22
2023-02-03T16:14:34.475Z,101227.22
2023-02-03T16:24:42.535Z,101257.59
2023-02-03T16:35:05.094Z,101263.56
2023-02-03T16:45:35.645Z,101255.06
2023-02-03T16:55:41.581Z,101252.22
2023-02-03T17:05:47.612Z,101260.78
2023-02-03T17:15:53.715Z,101273.84
2023-02-03T17:25:57.381Z,101293.13
2023-02-03T17:36:06.703Z,101300.22
2023-02-03T17:56:37.059Z,101339.03
2023-02-03T18:06:41.218Z,101357.19
2023-02-03T18:16:46.420Z,101336.53
2023-02-03T18:26:52.668Z,101335.84
2023-02-03T18:36:57.616Z,101339.44
2023-02-03T18:47:06.535Z,101350.50
2023-02-03T18:57:14.088Z,101361.97
2023-02-03T19:07:17.904Z,101391.78
2023-02-03T19:17:23.533Z,101395.81
2023-02-03T19:27:27.424Z,101402.19
2023-02-03T19:37:32.576Z,101402.50
2023-02-03T19:47:36.251Z,101403.09
2023-02-03T19:57:42.446Z,101437.56
2023-02-03T20:07:46.321Z,101435.53
2023-02-03T20:17:51.377Z,101438.81
2023-02-03T20:27:57.086Z,101442.81
2023-02-03T20:38:02.351Z,101466.59
2023-02-03T20:48:10.691Z,101458.84
2023-02-03T20:58:20.174Z,101456.78
2023-02-03T21:08:23.954Z,101467.25
2023-02-03T21:18:36.205Z,101466.59
2023-02-03T21:28:40.001Z,101480.00
2023-02-03T21:38:45.868Z,101487.56
2023-02-03T21:48:52.383Z,101505.75
2023-02-03T21:59:00.167Z,101491.16
2023-02-03T22:09:03.843Z,101506.69
2023-02-03T22:19:09.160Z,101522.06
2023-02-03T22:29:12.933Z,101550.44
2023-02-03T22:39:17.972Z,101569.88
2023-02-03T22:49:21.673Z,101579.66
2023-02-03T22:59:26.710Z,101599.28
2023-02-03T23:09:30.581Z,101593.81
2023-02-03T23:19:35.905Z,101605.94
2023-02-03T23:29:39.742Z,101607.56
2023-02-03T23:39:44.848Z,101632.53
2023-02-03T23:49:48.480Z,101628.16
2023-02-03T23:59:53.407Z,101640.38
